Time;durP1;ratioP1;P1;durP2;ratioP2;P2;SDS_P1;SDS_P2;PMS_P1;PMS_P2;Temp;Humidity;BMP_temperature;BMP_pressure;BME280_temperature;BME280_humidity;BME280_pressure;Samples;Min_cycle;Max_cycle;Signal;HPM_P1;HPM_P2
2021/12/06 00:01:31;;;;;;;3.80;3.00;;;;;;;;;;7397372;19;20401;-48
2021/12/06 00:04:00;;;;;;;3.90;2.30;;;;;;;;;;7397287;19;20520;-48
2021/12/06 00:06:29;;;;;;;3.27;2.50;;;;;;;;;;7397740;19;20377;-48
2021/12/06 00:08:58;;;;;;;5.17;3.03;;;;;;;;;;7402585;19;21377;-48
2021/12/06 00:11:26;;;;;;;4.30;2.63;;;;;;;;;;7395214;19;20411;-48
2021/12/06 00:13:53;;;;;;;4.80;2.40;;;;;;;;;;7393261;19;20380;-48
2021/12/06 00:16:22;;;;;;;3.90;2.63;;;;;;;;;;7376773;19;20647;-48
2021/12/06 00:18:49;;;;;;;6.63;2.50;;;;;;;;;;7396364;19;20401;-48
2021/12/06 00:21:15;;;;;;;2.93;2.47;;;;;;;;;;7395385;19;20440;-48
2021/12/06 00:23:43;;;;;;;2.33;2.03;;;;;;;;;;7389337;19;21214;-48
2021/12/06 00:26:10;;;;;;;2.73;2.37;;;;;;;;;;7394415;19;20436;-48
2021/12/06 00:28:40;;;;;;;3.23;2.67;;;;;;;;;;7395915;19;20405;-48
2021/12/06 00:31:08;;;;;;;3.10;2.73;;;;;;;;;;7383676;19;20456;-48
2021/12/06 00:33:34;;;;;;;5.03;1.83;;;;;;;;;;7393166;19;20492;-48
2021/12/06 00:36:06;;;;;;;3.43;2.43;;;24.10;55.80;;;;;;7398182;19;20495;-48
2021/12/06 00:38:34;;;;;;;3.40;2.10;;;24.10;50.30;;;;;;7400504;19;20413;-48
2021/12/06 00:41:00;;;;;;;4.00;2.27;;;24.20;50.50;;;;;;7398138;19;20424;-48
2021/12/06 00:43:27;;;;;;;2.93;1.97;;;24.20;50.30;;;;;;7387653;19;20381;-48
2021/12/06 00:45:54;;;;;;;2.90;1.97;;;;;;;;;;7398787;19;20460;-48
2021/12/06 00:48:20;;;;;;;3.50;1.97;;;;;;;;;;7370972;19;20392;-48
2021/12/06 00:50:49;;;;;;;3.80;1.87;;;;;;;;;;7399740;19;20420;-45
2021/12/06 00:53:15;;;;;;;2.10;2.00;;;;;;;;;;7394383;19;20420;-46
2021/12/06 00:55:41;;;;;;;3.10;2.20;;;;;;;;;;7396759;19;20427;-45
2021/12/06 00:58:07;;;;;;;1.90;1.70;;;;;;;;;;7396110;19;20766;-45
2021/12/06 01:00:38;;;;;;;2.33;2.13;;;;;;;;;;7396309;19;20439;-46
2021/12/06 01:03:09;;;;;;;3.97;2.03;;;;;;;;;;7396394;19;20448;-45
2021/12/06 01:05:35;;;;;;;2.43;1.97;;;;;;;;;;7387039;19;20380;-45
2021/12/06 01:08:02;;;;;;;2.20;1.77;;;;;;;;;;7370098;19;20690;-46
2021/12/06 01:10:31;;;;;;;3.00;2.00;;;;;;;;;;7400855;19;20498;-46
2021/12/06 01:12:58;;;;;;;2.23;1.63;;;24.20;50.20;;;;;;7400034;19;20470;-46
2021/12/06 01:15:24;;;;;;;1.83;1.73;;;24.20;49.70;;;;;;7398413;19;20380;-45
2021/12/06 01:17:55;;;;;;;2.97;2.07;;;24.10;49.70;;;;;;7375036;19;20442;-45
2021/12/06 01:20:27;;;;;;;2.63;1.67;;;;;;;;;;7396562;19;20526;-48
2021/12/06 01:22:58;;;;;;;2.87;1.97;;;24.10;49.90;;;;;;7399262;19;20373;-48
2021/12/06 01:25:32;;;;;;;1.90;1.70;;;;;;;;;;7394218;19;20502;-48
2021/12/06 01:41:34;;;;;;;2.20;1.97;;;;;;;;;;7399245;19;20804;-47
2021/12/06 01:44:12;;;;;;;2.17;1.97;;;;;;;;;;7398169;19;20412;-47
2021/12/06 01:46:55;;;;;;;1.83;1.67;;;;;;;;;;7398053;19;20388;-48
2021/12/06 01:49:24;;;;;;;2.40;2.20;;;;;;;;;;7378381;19;20500;-48
2021/12/06 01:51:54;;;;;;;2.20;2.00;;;;;;;;;;7395680;19;20508;-48
2021/12/06 01:54:22;;;;;;;2.27;1.63;;;;;;;;;;7399683;19;20387;-48
2021/12/06 01:56:53;;;;;;;1.90;1.70;;;;;;;;;;7390665;19;20455;-48
2021/12/06 01:59:20;;;;;;;2.90;2.33;;;;;;;;;;7397708;19;20484;-48
2021/12/06 02:01:47;;;;;;;2.10;1.80;;;;;;;;;;7387917;19;20450;-48
2021/12/06 02:04:16;;;;;;;2.20;2.00;;;;;;;;;;7397072;19;20436;-48
2021/12/06 02:06:46;;;;;;;2.00;1.80;;;;;;;;;;7392863;19;20428;-48
2021/12/06 02:09:16;;;;;;;2.50;1.83;;;;;;;;;;7395718;19;20460;-48
2021/12/06 02:11:43;;;;;;;3.43;2.20;;;;;;;;;;7393293;19;20424;-48
2021/12/06 02:17:07;;;;;;;3.07;2.50;;;;;;;;;;7392852;19;20432;-48
2021/12/06 02:19:39;;;;;;;2.13;1.90;;;;;;;;;;7384129;19;20465;-48
2021/12/06 02:22:08;;;;;;;2.57;2.10;;;;;;;;;;7349490;19;20404;-48
2021/12/06 02:24:38;;;;;;;2.23;1.90;;;;;;;;;;7395309;19;20392;-48
2021/12/06 02:27:07;;;;;;;2.77;2.30;;;;;;;;;;7397819;19;20519;-48
2021/12/06 02:29:33;;;;;;;2.50;2.27;;;;;;;;;;7392535;19;20523;-48
2021/12/06 02:32:04;;;;;;;2.60;2.00;;;;;;;;;;7383745;19;20460;-48
2021/12/06 02:34:31;;;;;;;2.87;2.50;;;;;;;;;;7392782;19;21221;-48
2021/12/06 02:36:57;;;;;;;1.97;1.87;;;;;;;;;;7398941;19;20376;-48
2021/12/06 02:39:25;;;;;;;2.83;2.23;;;;;;;;;;7397621;19;20416;-48
2021/12/06 02:41:53;;;;;;;2.43;2.23;;;;;;;;;;7398895;19;20376;-48
2021/12/06 02:44:22;;;;;;;3.10;2.50;;;;;;;;;;7389051;19;20525;-48
2021/12/06 02:46:49;;;;;;;2.73;2.20;;;;;;;;;;7396844;19;20871;-48
2021/12/06 02:49:16;;;;;;;3.00;2.17;;;;;;;;;;7389837;19;27887;-48
2021/12/06 02:51:42;;;;;;;2.60;2.17;;;;;;;;;;7402707;19;20424;-48
2021/12/06 02:54:11;;;;;;;2.30;2.07;;;;;;;;;;7389296;19;20454;-48
2021/12/06 02:56:51;;;;;;;2.60;2.13;;;;;;;;;;7399756;19;20465;-48
2021/12/06 02:59:22;;;;;;;2.47;2.17;;;;;;;;;;7397091;19;20579;-48
2021/12/06 03:01:52;;;;;;;4.20;2.03;;;;;;;;;;7394793;19;20512;-48
2021/12/06 03:04:18;;;;;;;2.43;2.00;;;;;;;;;;7399219;19;20609;-47
2021/12/06 03:06:47;;;;;;;2.83;2.37;;;;;;;;;;7396642;19;20396;-48
2021/12/06 03:09:15;;;;;;;2.67;2.10;;;;;;;;;;7398287;19;20427;-48
2021/12/06 03:11:44;;;;;;;2.40;1.80;;;;;;;;;;7408278;19;20412;-48
2021/12/06 03:14:15;;;;;;;2.17;1.93;;;;;;;;;;7397738;19;20423;-48
2021/12/06 03:16:45;;;;;;;3.20;2.60;;;;;;;;;;7400558;19;20400;-48
2021/12/06 03:19:14;;;;;;;2.23;2.03;;;;;;;;;;7393095;19;20422;-48
2021/12/06 03:21:43;;;;;;;2.17;1.97;;;;;;;;;;7402472;19;20396;-48
2021/12/06 03:24:10;;;;;;;2.50;2.30;;;;;;;;;;7401748;19;20664;-48
2021/12/06 03:26:42;;;;;;;3.30;2.20;;;;;;;;;;7400454;19;20420;-48
2021/12/06 03:29:13;;;;;;;2.30;2.10;;;;;;;;;;7400988;19;20391;-48
2021/12/06 03:31:41;;;;;;;3.20;2.50;;;;;;;;;;7381114;19;20486;-47
2021/12/06 03:34:11;;;;;;;3.43;2.80;;;;;;;;;;7399694;19;20417;-48
2021/12/06 03:36:39;;;;;;;2.50;2.30;;;;;;;;;;7403531;19;20421;-48
2021/12/06 03:39:12;;;;;;;4.00;2.83;;;;;;;;;;7402629;19;20723;-48
2021/12/06 03:41:39;;;;;;;2.50;2.30;;;;;;;;;;7393894;19;20423;-48
2021/12/06 03:44:05;;;;;;;2.40;2.20;;;;;;;;;;7404913;19;20395;-48
2021/12/06 03:46:34;;;;;;;2.47;2.27;;;;;;;;;;7396042;19;20420;-48
2021/12/06 03:49:06;;;;;;;2.80;2.60;;;;;;;;;;7405385;19;20623;-48
2021/12/06 03:51:33;;;;;;;2.90;2.40;;;;;;;;;;7403571;19;20424;-45
2021/12/06 03:53:59;;;;;;;3.90;3.17;;;;;;;;;;7391526;19;20464;-46
2021/12/06 03:56:27;;;;;;;3.23;2.63;;;;;;;;;;7398811;19;20472;-45
2021/12/06 03:58:54;;;;;;;3.33;3.03;;;;;;;;;;7406235;19;20416;-45
2021/12/06 04:01:22;;;;;;;3.30;3.00;;;;;;;;;;7389924;19;20360;-41
2021/12/06 04:03:48;;;;;;;3.33;3.03;;;;;;;;;;7395990;19;20352;-48
2021/12/06 04:06:15;;;;;;;3.10;2.80;;;;;;;;;;7399157;19;20475;-47
2021/12/06 04:08:45;;;;;;;3.00;2.80;;;;;;;;;;7400150;19;20428;-47
2021/12/06 04:11:14;;;;;;;3.27;2.90;;;;;;;;;;7402484;19;20750;-48
2021/12/06 04:13:40;;;;;;;2.80;2.60;;;;;;;;;;7402805;19;20538;-47
2021/12/06 04:16:09;;;;;;;3.30;3.00;;;;;;;;;;7390520;19;20380;-47
2021/12/06 04:18:40;;;;;;;3.07;2.70;;;;;;;;;;7399792;19;20416;-48
2021/12/06 04:21:07;;;;;;;3.17;2.83;;;;;;;;;;7394388;19;20388;-50
2021/12/06 04:23:34;;;;;;;2.80;2.60;;;;;;;;;;7390078;19;20405;-50
2021/12/06 04:26:05;;;;;;;3.20;2.90;;;;;;;;;;7400398;19;20650;-50
2021/12/06 04:28:34;;;;;;;3.23;2.93;;;;;;;;;;7391289;19;20428;-50
2021/12/06 04:31:01;;;;;;;2.97;2.77;;;;;;;;;;7378883;19;20550;-50
2021/12/06 04:33:28;;;;;;;4.07;2.80;;;;;;;;;;7391257;19;20646;-50
2021/12/06 04:35:56;;;;;;;3.43;3.07;;;;;;;;;;7397762;19;20404;-50
2021/12/06 04:38:23;;;;;;;3.47;3.17;;;;;;;;;;7376804;19;20440;-50
2021/12/06 04:40:49;;;;;;;2.80;2.30;;;;;;;;;;7378005;19;20473;-50
2021/12/06 04:43:18;;;;;;;3.87;2.60;;;;;;;;;;7380318;19;21029;-50
2021/12/06 04:45:47;;;;;;;3.13;2.93;;;;;;;;;;7387114;19;20431;-50
2021/12/06 04:50:01;;;;;;;2.60;2.40;;;;;;;;;;7299057;19;191701;-47
2021/12/06 04:52:34;;;;;;;3.60;2.90;;;;;;;;;;7435329;19;20351;-47
2021/12/06 04:55:05;;;;;;;2.83;2.43;;;;;;;;;;7397128;19;20563;-46
2021/12/06 04:57:36;;;;;;;7.30;2.80;;;;;;;;;;7407953;19;20359;-46
2021/12/06 05:00:10;;;;;;;3.80;2.73;;;;;;;;;;7420372;19;20668;-47
2021/12/06 05:02:42;;;;;;;2.83;2.63;;;;;;;;;;7434391;19;20363;-47
2021/12/06 05:05:20;;;;;;;3.40;2.70;;;;;;;;;;7434463;19;20359;-47
2021/12/06 05:07:56;;;;;;;3.00;2.77;;;;;;;;;;7427837;19;20482;-47
2021/12/06 05:10:25;;;;;;;3.37;2.80;;;;;;;;;;7434176;19;20359;-47
2021/12/06 05:12:57;;;;;;;2.73;2.53;;;;;;;;;;7435442;19;21077;-46
2021/12/06 05:15:33;;;;;;;3.40;2.97;;;;;;;;;;7429585;19;20395;-46
2021/12/06 05:18:03;;;;;;;3.60;3.30;;;;;;;;;;7441539;19;20371;-47
2021/12/06 05:20:36;;;;;;;3.30;3.10;;;;;;;;;;7428680;19;20363;-50
2021/12/06 05:23:06;;;;;;;2.70;2.50;;;;;;;;;;7437904;19;20364;-49
2021/12/06 05:25:36;;;;;;;3.27;2.97;;;;;;;;;;7432029;19;20495;-49
2021/12/06 05:28:05;;;;;;;3.03;2.80;;;;;;;;;;7437053;19;20485;-49
2021/12/06 05:30:36;;;;;;;3.30;3.00;;;;;;;;;;7427681;19;20447;-49
2021/12/06 05:33:03;;;;;;;2.83;2.60;;;;;;;;;;7432845;19;20360;-49
2021/12/06 05:35:32;;;;;;;4.10;3.50;;;;;;;;;;7433888;19;20351;-49
2021/12/06 05:38:02;;;;;;;2.87;2.50;;;;;;;;;;7439326;19;20376;-49
2021/12/06 05:40:34;;;;;;;4.50;3.10;;;;;;;;;;7432288;19;20367;-49
2021/12/06 05:43:01;;;;;;;2.87;2.67;;;;;;;;;;7432283;19;20371;-49
2021/12/06 05:45:30;;;;;;;3.70;3.40;;;;;;;;;;7435703;19;20610;-49
2021/12/06 05:47:59;;;;;;;3.20;2.90;;;;;;;;;;7435825;19;20488;-49
2021/12/06 05:50:31;;;;;;;3.40;3.10;;;;;;;;;;7437100;19;20375;-49
2021/12/06 05:52:58;;;;;;;3.20;2.90;;;;;;;;;;7438310;19;20442;-49
2021/12/06 05:55:28;;;;;;;3.07;2.77;;;;;;;;;;7425929;19;20364;-49
2021/12/06 05:58:00;;;;;;;2.50;2.30;;;;;;;;;;7428154;19;20368;-49
2021/12/06 06:00:32;;;;;;;2.60;2.40;;;;;;;;;;7409358;19;20372;-49
2021/12/06 06:03:03;;;;;;;3.10;2.80;;;;;;;;;;7402716;19;20424;-49
2021/12/06 06:05:30;;;;;;;2.97;2.47;;;;;;;;;;7400313;19;20551;-49
2021/12/06 06:07:56;;;;;;;2.60;2.30;;;;;;;;;;7402602;19;20361;-49
2021/12/06 06:10:23;;;;;;;3.07;2.80;;;;;;;;;;7387735;19;20714;-49
2021/12/06 06:12:52;;;;;;;2.83;2.63;;;;;;;;;;7402642;19;20364;-49
2021/12/06 06:15:21;;;;;;;2.40;2.20;;;;;;;;;;7402151;19;20365;-49
2021/12/06 06:17:48;;;;;;;2.90;2.70;;;;;;;;;;7407258;19;20383;-49
2021/12/06 06:20:27;;;;;;;3.03;2.83;;;;;;;;;;7405452;19;20454;-49
2021/12/06 06:22:55;;;;;;;3.17;2.93;;;24.20;49.60;;;;;;7407910;19;20679;-49
2021/12/06 06:25:24;;;;;;;4.70;3.30;;;24.90;47.40;;;;;;7396454;19;20371;-49
2021/12/06 06:27:55;;;;;;;3.87;3.20;;;;;;;;;;7400121;19;20952;-50
2021/12/06 06:30:27;;;;;;;3.50;3.20;;;;;;;;;;7392160;19;20436;-49
2021/12/06 06:32:54;;;;;;;3.67;2.97;;;;;;;;;;7401582;19;20388;-49
2021/12/06 06:35:23;;;;;;;12.93;11.63;;;;;;;;;;7401398;19;20583;-48
2021/12/06 06:37:50;;;;;;;11.50;10.23;;;;;;;;;;7400907;19;22316;-48
2021/12/06 06:40:18;;;;;;;11.20;10.10;;;24.90;47.30;;;;;;7397686;19;20353;-48
2021/12/06 06:42:55;;;;;;;13.40;11.90;;;15.70;49.20;;;;;;7393430;19;20567;-48
2021/12/06 06:45:26;;;;;;;11.13;9.27;;;13.10;52.80;;;;;;7396330;19;20561;-47
2021/12/06 06:47:53;;;;;;;7.53;6.80;;;11.60;56.80;;;;;;7394299;19;20526;-47
2021/12/06 06:50:20;;;;;;;6.27;5.70;;;13.30;59.60;;;;;;7393963;19;20385;-47
2021/12/06 06:52:48;;;;;;;6.87;5.53;;;15.60;57.50;;;;;;7393670;19;20464;-48
2021/12/06 06:55:18;;;;;;;6.27;5.13;;;;;;;;;;7402893;19;20424;-48
2021/12/06 06:57:45;;;;;;;5.07;4.57;;;;;;;;;;7399674;19;20356;-48
2021/12/06 07:00:15;;;;;;;4.30;3.60;;;;;;;;;;7403721;19;20344;-49
2021/12/06 07:02:47;;;;;;;4.73;4.33;;;;;;;;;;7405165;19;20368;-49
2021/12/06 07:05:16;;;;;;;4.97;4.47;;;;;;;;;;7402969;19;20372;-48
2021/12/06 07:07:42;;;;;;;4.80;4.30;;;;;;;;;;7404120;19;20685;-49
2021/12/06 07:10:10;;;;;;;7.03;3.80;;;;;;;;;;7400871;19;20352;-49
2021/12/06 07:12:44;;;;;;;4.03;3.57;;;;;;;;;;7398656;19;20486;-48
2021/12/06 07:15:12;;;;;;;4.37;3.90;;;;;;;;;;7404718;19;20432;-49
2021/12/06 07:17:42;;;;;;;3.90;3.50;;;;;;;;;;7403164;19;20662;-49
2021/12/06 07:20:12;;;;;;;3.80;3.50;;;;;;;;;;7403577;19;20376;-48
2021/12/06 07:22:39;;;;;;;3.40;3.10;;;;;;;;;;7403170;19;20365;-48
2021/12/06 07:25:07;;;;;;;4.10;3.70;;;;;;;;;;7404381;19;20356;-49
2021/12/06 07:27:33;;;;;;;3.70;3.30;;;;;;;;;;7404285;19;20366;-49
2021/12/06 07:30:01;;;;;;;3.60;3.30;;;;;;;;;;7405070;19;20722;-49
2021/12/06 07:32:28;;;;;;;3.40;3.00;;;;;;;;;;7407354;19;20368;-49
2021/12/06 07:34:55;;;;;;;3.03;2.73;;;;;;;;;;7408464;19;20353;-49
2021/12/06 07:37:24;;;;;;;3.60;3.30;;;;;;;;;;7406954;19;20460;-49
2021/12/06 07:39:54;;;;;;;4.40;3.83;;;;;;;;;;7405908;19;20352;-49
2021/12/06 07:42:20;;;;;;;4.13;3.73;;;;;;;;;;7404570;19;20383;-48
2021/12/06 07:44:50;;;;;;;3.87;3.13;;;;;;;;;;7401484;19;20939;-48
2021/12/06 07:47:23;;;;;;;3.87;3.47;;;;;;;;;;7404634;19;20372;-49
2021/12/06 07:49:49;;;;;;;4.87;4.33;;;;;;;;;;7400378;19;20376;-49
2021/12/06 07:52:18;;;;;;;4.23;3.80;;;;;;;;;;7405761;19;20483;-49
2021/12/06 07:54:50;;;;;;;3.70;3.40;;;;;;;;;;7406514;19;20368;-49
2021/12/06 07:57:19;;;;;;;4.20;3.70;;;;;;;;;;7401214;19;20364;-49
2021/12/06 07:59:48;;;;;;;3.80;3.50;;;;;;;;;;7395826;19;20361;-46
2021/12/06 08:02:15;;;;;;;4.00;3.17;;;;;;;;;;7398415;19;20375;-45
2021/12/06 08:04:49;;;;;;;4.03;3.33;;;;;;;;;;7403567;19;20368;-45
2021/12/06 08:07:15;;;;;;;3.00;2.70;;;;;;;;;;7406418;19;20491;-45
2021/12/06 08:09:44;;;;;;;3.33;3.03;;;;;;;;;;7400093;19;20365;-46
2021/12/06 08:12:11;;;;;;;3.87;3.30;;;;;;;;;;7401632;19;20660;-45
2021/12/06 08:14:37;;;;;;;3.10;2.80;;;;;;;;;;7397426;19;20462;-45
2021/12/06 08:17:07;;;;;;;3.57;3.27;;;;;;;;;;7400016;19;20537;-45
2021/12/06 08:19:38;;;;;;;4.33;3.93;;;;;;;;;;7390555;19;20487;-45
2021/12/06 08:22:05;;;;;;;3.10;2.80;;;;;;;;;;7395825;19;20361;-45
2021/12/06 08:24:31;;;;;;;2.87;2.67;;;;;;;;;;7396752;19;20657;-45
2021/12/06 08:27:01;;;;;;;2.70;2.50;;;;;;;;;;7391922;19;20376;-45
2021/12/06 08:29:32;;;;;;;3.10;2.80;;;;;;;;;;7404145;19;20376;-48
2021/12/06 08:32:01;;;;;;;3.00;2.70;;;;;;;;;;7390573;19;20428;-49
2021/12/06 08:34:29;;;;;;;3.17;2.80;;;;;;;;;;7402758;19;20359;-49
2021/12/06 08:36:58;;;;;;;3.53;2.70;;;;;;;;;;7404754;19;20599;-49
2021/12/06 08:39:25;;;;;;;3.20;2.83;;;;;;;;;;7403382;19;20381;-48
2021/12/06 08:41:51;;;;;;;3.03;2.73;;;;;;;;;;7399654;19;20434;-49
2021/12/06 08:44:18;;;;;;;3.13;2.47;;;;;;;;;;7400195;19;20361;-49
2021/12/06 08:46:46;;;;;;;3.73;3.00;;;;;;;;;;7405156;19;20423;-49
2021/12/06 08:49:13;;;;;;;2.53;2.30;;;;;;;;;;7400614;19;20472;-49
2021/12/06 08:51:44;;;;;;;2.80;2.60;;;;;;;;;;7401643;19;20464;-49
2021/12/06 08:54:22;;;;;;;3.83;2.73;;;;;;;;;;7394203;19;20392;-48
2021/12/06 08:56:49;;;;;;;3.40;3.10;;;;;;;;;;7398599;19;20360;-49
2021/12/06 08:59:19;;;;;;;3.40;3.10;;;;;;;;;;7404597;19;20380;-48
2021/12/06 09:01:48;;;;;;;3.20;3.00;;;;;;;;;;7404053;19;20372;-46
2021/12/06 09:04:14;;;;;;;2.77;2.57;;;;;;;;;;7400235;19;20368;-46
2021/12/06 09:06:43;;;;;;;3.03;2.73;;;;;;;;;;7401025;19;20755;-45
2021/12/06 09:09:12;;;;;;;4.33;2.73;;;;;;;;;;7394175;19;20368;-45
2021/12/06 09:11:41;;;;;;;2.70;2.50;;;;;;;;;;7400130;19;20364;-45
2021/12/06 09:14:08;;;;;;;2.77;2.57;;;;;;;;;;7403603;19;20373;-45
2021/12/06 09:16:36;;;;;;;3.50;3.10;;;;;;;;;;7401300;19;20372;-46
2021/12/06 09:19:10;;;;;;;2.53;2.33;;;;;;;;;;7399940;19;20599;-45
2021/12/06 09:21:37;;;;;;;2.60;2.40;;;;;;;;;;7403953;19;20425;-45
2021/12/06 09:24:07;;;;;;;2.70;2.50;;;;;;;;;;7399261;19;20428;-46
2021/12/06 09:26:34;;;;;;;2.50;2.17;;;;;;;;;;7405553;19;20567;-46
2021/12/06 09:29:04;;;;;;;3.47;2.77;;;;;;;;;;7399527;19;20368;-46
2021/12/06 09:31:31;;;;;;;3.17;2.63;;;;;;;;;;7398201;19;20568;-45
2021/12/06 09:33:58;;;;;;;2.70;2.50;;;;;;;;;;7397464;19;20466;-45
2021/12/06 09:36:25;;;;;;;3.23;2.83;;;;;;;;;;7411379;19;20480;-45
2021/12/06 09:38:56;;;;;;;3.03;2.73;;;;;;;;;;7401847;19;20454;-45
2021/12/06 09:41:27;;;;;;;2.60;2.40;;;;;;;;;;7410282;19;20375;-46
2021/12/06 09:44:00;;;;;;;3.63;3.27;;;;;;;;;;7412133;19;20379;-45
2021/12/06 09:46:28;;;;;;;3.80;2.87;;;;;;;;;;7411399;19;20460;-45
2021/12/06 09:49:01;;;;;;;2.60;2.13;;;;;;;;;;7410118;19;20392;-45
2021/12/06 09:51:30;;;;;;;2.97;2.60;;;;;;;;;;7410937;19;21118;-45
2021/12/06 09:54:00;;;;;;;3.13;2.53;;;;;;;;;;7405941;19;20683;-45
2021/12/06 09:56:29;;;;;;;4.70;2.70;;;;;;;;;;7399920;19;20595;-45
2021/12/06 09:58:58;;;;;;;3.33;3.03;;;;;;;;;;7401909;19;20368;-45
2021/12/06 10:01:29;;;;;;;2.53;2.23;;;;;;;;;;7403539;19;20396;-49
2021/12/06 10:03:58;;;;;;;5.00;3.00;;;;;;;;;;7411249;19;20356;-48
2021/12/06 10:06:26;;;;;;;3.13;2.50;;;;;;;;;;7410534;19;20521;-49
2021/12/06 10:08:56;;;;;;;3.30;2.87;;;;;;;;;;7404024;19;20795;-48
2021/12/06 10:11:25;;;;;;;2.53;2.30;;;;;;;;;;7407694;19;20381;-49
2021/12/06 10:13:52;;;;;;;2.90;2.30;;;;;;;;;;7405653;19;20372;-48
2021/12/06 10:16:19;;;;;;;3.63;2.87;;;;;;;;;;7409471;19;20490;-48
2021/12/06 10:18:48;;;;;;;5.07;3.03;;;;;;;;;;7410548;19;20424;-48
2021/12/06 10:21:18;;;;;;;3.03;2.57;;;;;;;;;;7409906;19;20364;-48
2021/12/06 10:23:44;;;;;;;5.03;3.00;;;;;;;;;;7408511;19;20570;-48
2021/12/06 10:26:13;;;;;;;4.30;2.70;;;;;;;;;;7408994;19;20367;-49
2021/12/06 10:28:43;;;;;;;4.90;2.97;;;;;;;;;;7407726;19;20574;-48
2021/12/06 10:31:11;;;;;;;3.20;2.83;;;;;;;;;;7399097;19;20423;-46
2021/12/06 10:33:49;;;;;;;3.17;2.87;;;;;;;;;;7406116;19;20364;-45
2021/12/06 10:36:19;;;;;;;4.33;3.37;;;;;;;;;;7407691;19;20436;-45
2021/12/06 10:38:51;;;;;;;3.20;2.90;;;;;;;;;;7407303;19;20360;-45
2021/12/06 10:41:18;;;;;;;4.40;2.73;;;;;;;;;;7408270;19;20360;-45
2021/12/06 10:43:53;;;;;;;3.63;3.27;;;;;;;;;;7408816;19;20479;-45
2021/12/06 10:46:19;;;;;;;3.97;3.03;;;;;;;;;;7401470;19;20415;-45
2021/12/06 10:48:53;;;;;;;3.70;2.97;;;;;;;;;;7405757;19;20618;-45
2021/12/06 10:51:20;;;;;;;3.57;2.70;;;;;;;;;;7407242;19;20371;-45
2021/12/06 10:53:52;;;;;;;3.90;2.83;;;;;;;;;;7403077;19;20353;-46
2021/12/06 10:56:24;;;;;;;3.67;2.90;;;;;;;;;;7406554;19;20359;-45
2021/12/06 10:58:53;;;;;;;4.00;3.47;;;;;;;;;;7404859;19;20541;-45
2021/12/06 11:01:21;;;;;;;9.60;3.77;;;;;;;;;;7404907;19;20543;-46
2021/12/06 11:03:51;;;;;;;3.30;2.73;;;;;;;;;;7405078;19;20365;-45
2021/12/06 11:06:24;;;;;;;3.57;2.97;;;;;;;;;;7407028;19;20373;-45
2021/12/06 11:08:55;;;;;;;2.90;2.60;;;;;;;;;;7401067;19;20380;-45
2021/12/06 11:11:30;;;;;;;3.87;2.80;;;;;;;;;;7403395;19;20432;-45
2021/12/06 11:14:01;;;;;;;3.40;2.83;;;;;;;;;;7406606;19;20420;-46
2021/12/06 11:16:29;;;;;;;3.53;2.33;;;;;;;;;;7407254;19;20389;-46
2021/12/06 11:18:57;;;;;;;5.83;2.93;;;;;;;;;;7406466;19;20416;-45
2021/12/06 11:21:26;;;;;;;3.90;2.43;;;;;;;;;;7403183;19;20384;-45
2021/12/06 11:24:11;;;;;;;4.90;2.63;;;;;;;;;;7403515;19;20439;-46
2021/12/06 11:26:43;;;;;;;3.27;2.80;;;;;;;;;;7407977;19;20592;-45
2021/12/06 11:29:12;;;;;;;3.23;2.40;;;;;;;;;;7403210;19;20467;-45
2021/12/06 11:31:40;;;;;;;2.80;2.53;;;;;;;;;;7395154;19;20432;-45
2021/12/06 11:34:07;;;;;;;3.37;2.63;;;;;;;;;;7407694;19;20557;-45
2021/12/06 11:36:35;;;;;;;3.43;2.50;;;;;;;;;;7403014;19;20405;-45
2021/12/06 11:39:06;;;;;;;4.10;2.90;;;;;;;;;;7406360;19;20450;-45
2021/12/06 11:41:36;;;;;;;3.20;2.23;;;;;;;;;;7407195;19;20420;-45
2021/12/06 11:44:17;;;;;;;2.93;2.20;;;;;;;;;;7400916;19;20374;-45
2021/12/06 11:46:44;;;;;;;3.13;2.43;;;;;;;;;;7406682;19;20360;-46
2021/12/06 11:49:21;;;;;;;4.00;2.80;;;;;;;;;;7400808;19;20670;-46
2021/12/06 11:51:54;;;;;;;3.27;2.43;;;;;;;;;;7402955;19;20443;-45
2021/12/06 11:54:21;;;;;;;3.93;2.77;;;;;;;;;;7402981;19;20352;-46
2021/12/06 11:56:51;;;;;;;5.00;2.50;;;;;;;;;;7404390;19;20369;-45
2021/12/06 11:59:19;;;;;;;2.70;2.37;;;;;;;;;;7398233;19;20384;-46
2021/12/06 12:01:49;;;;;;;2.37;2.17;;;;;;;;;;7403797;19;20564;-49
2021/12/06 12:04:24;;;;;;;3.30;2.10;;;;;;;;;;7404625;19;20883;-48
2021/12/06 12:07:02;;;;;;;2.27;2.07;;;;;;;;;;7398483;19;20376;-49
2021/12/06 12:09:30;;;;;;;3.07;1.90;;;;;;;;;;7401731;19;20369;-48
2021/12/06 12:12:09;;;;;;;2.33;2.13;;;;;;;;;;7402237;19;20379;-48
2021/12/06 12:14:43;;;;;;;2.70;2.20;;;;;;;;;;7400099;19;20356;-49
2021/12/06 12:17:12;;;;;;;2.50;2.23;;;;;;;;;;7403407;19;20366;-48
2021/12/06 12:19:40;;;;;;;2.33;2.10;;;;;;;;;;7405709;19;20518;-48
2021/12/06 12:22:10;;;;;;;3.43;1.97;;;;;;;;;;7397505;19;20361;-49
2021/12/06 12:24:42;;;;;;;2.50;2.27;;;;;;;;;;7397750;19;20448;-49
2021/12/06 12:27:27;;;;;;;2.03;1.83;;;;;;;;;;7400120;19;20512;-48
2021/12/06 12:29:59;;;;;;;2.53;2.10;;;;;;;;;;7405689;19;20431;-49
2021/12/06 12:32:32;;;;;;;2.80;2.03;;;;;;;;;;7399398;19;20384;-48
2021/12/06 12:35:03;;;;;;;2.17;1.93;;;;;;;;;;7399251;19;20472;-48
2021/12/06 12:37:33;;;;;;;2.40;2.20;;;;;;;;;;7401387;19;20488;-48
2021/12/06 12:40:01;;;;;;;4.33;1.87;;;;;;;;;;7401368;19;20380;-48
2021/12/06 12:42:28;;;;;;;4.67;2.30;;;;;;;;;;7404176;19;20360;-48
2021/12/06 12:44:56;;;;;;;2.27;2.00;;;;;;;;;;7402573;19;20824;-48
2021/12/06 12:47:33;;;;;;;2.07;1.87;;;;;;;;;;7404450;19;20399;-48
2021/12/06 12:50:06;;;;;;;1.80;1.70;;;;;;;;;;7403577;19;20367;-48
2021/12/06 12:52:39;;;;;;;2.83;1.80;;;;;;;;;;7406349;19;20456;-48
2021/12/06 12:55:38;;;;;;;2.93;1.97;;;;;;;;;;7404047;19;20435;-49
2021/12/06 12:58:09;;;;;;;1.70;1.50;;;;;;;;;;7403456;19;20412;-49
2021/12/06 13:00:58;;;;;;;3.93;1.97;;;;;;;;;;7403203;19;20389;-48
2021/12/06 13:03:28;;;;;;;1.80;1.70;;;;;;;;;;7403972;19;20388;-48
2021/12/06 13:06:16;;;;;;;1.63;1.53;;;;;;;;;;7400315;19;20364;-48
2021/12/06 13:08:46;;;;;;;1.70;1.60;;;;;;;;;;7395751;19;20375;-48
2021/12/06 13:11:13;;;;;;;3.57;1.40;;;;;;;;;;7399299;19;20407;-48
2021/12/06 13:13:45;;;;;;;1.90;1.57;;;;;;;;;;7406447;19;20348;-49
2021/12/06 13:16:37;;;;;;;1.80;1.20;;;;;;;;;;7410516;19;20432;-48
2021/12/06 13:21:55;;;;;;;2.67;1.73;;;;;;;;;;7401965;19;20368;-49
2021/12/06 13:24:22;;;;;;;3.43;2.30;;;;;;;;;;7410687;19;20377;-49
2021/12/06 13:26:56;;;;;;;2.60;2.00;;;;;;;;;;7407414;19;20360;-49
2021/12/06 13:29:37;;;;;;;2.47;2.07;;;;;;;;;;7382806;19;20383;-46
2021/12/06 13:32:24;;;;;;;2.53;2.00;;;;;;;;;;7401032;19;20434;-46
2021/12/06 13:34:55;;;;;;;3.07;2.67;;;;;;;;;;7381805;19;20359;-46
2021/12/06 13:37:28;;;;;;;3.50;2.80;;;;;;;;;;7365032;19;20396;-46
2021/12/06 13:39:54;;;;;;;3.03;2.57;;;;;;;;;;7398345;19;20364;-46
2021/12/06 13:42:40;;;;;;;2.77;1.90;;;;;;;;;;7391409;19;20364;-46
2021/12/06 13:45:16;;;;;;;3.90;2.80;;;;;;;;;;7390440;19;20359;-46
2021/12/06 13:47:48;;;;;;;3.13;2.33;;;;;;;;;;7383034;19;20359;-46
2021/12/06 13:50:16;;;;;;;2.60;1.83;;;;;;;;;;7389724;19;20372;-46
2021/12/06 13:52:47;;;;;;;3.57;2.23;;;;;;;;;;7391636;19;20778;-46
2021/12/06 13:55:21;;;;;;;3.63;2.70;;;;;;;;;;7383560;19;20792;-46
2021/12/06 13:57:49;;;;;;;3.40;2.30;;;;;;;;;;7389794;19;20360;-46
2021/12/06 14:00:24;;;;;;;2.60;2.40;;;;;;;;;;7392698;19;20631;-46
2021/12/06 14:02:58;;;;;;;2.73;2.40;;;;;;;;;;7388388;19;20349;-46
2021/12/06 14:05:29;;;;;;;4.13;2.47;;;;;;;;;;7386520;19;20361;-46
2021/12/06 14:07:58;;;;;;;3.30;1.83;;;;;;;;;;7396338;19;20469;-46
2021/12/06 14:10:27;;;;;;;2.70;2.50;;;;;;;;;;7377130;19;20371;-46
2021/12/06 14:12:56;;;;;;;4.67;2.27;;;;;;;;;;7389427;19;20372;-46
2021/12/06 14:15:42;;;;;;;2.00;1.70;;;;;;;;;;7380320;19;20630;-46
2021/12/06 14:18:09;;;;;;;4.53;2.60;;;;;;;;;;7373278;19;20794;-46
2021/12/06 14:20:45;;;;;;;2.73;2.43;;;;;;;;;;7388020;19;20372;-46
2021/12/06 14:23:12;;;;;;;3.40;2.60;;;;;;;;;;7378489;19;20368;-46
2021/12/06 14:25:48;;;;;;;3.97;3.20;;;;;;;;;;7384085;19;20394;-46
2021/12/06 14:28:18;;;;;;;3.50;2.43;;;;;;;;;;7388247;19;20364;-45
2021/12/06 14:30:44;;;;;;;2.77;2.50;;;;;;;;;;7374308;19;20417;-49
2021/12/06 14:33:14;;;;;;;5.93;2.63;;;;;;;;;;7387891;19;20354;-49
2021/12/06 14:35:43;;;;;;;3.50;2.83;;;;;;;;;;7385868;19;20360;-49
2021/12/06 14:38:16;;;;;;;2.80;2.37;;;;;;;;;;7386231;19;20364;-49
2021/12/06 14:40:45;;;;;;;3.10;2.80;;;;;;;;;;7376347;19;20356;-50
2021/12/06 14:43:13;;;;;;;4.30;3.00;;;;;;;;;;7388213;19;20380;-49
2021/12/06 14:45:40;;;;;;;3.23;2.40;;;;;;;;;;7388804;19;20984;-49
2021/12/06 14:48:11;;;;;;;3.60;2.50;;;;;;;;;;7370461;19;20939;-49
2021/12/06 14:53:22;;;;;;;2.67;2.10;;;;;;;;;;7377011;19;20356;-49
2021/12/06 14:56:07;;;;;;;3.13;2.37;;;;;;;;;;7389420;19;20373;-49
2021/12/06 14:58:39;;;;;;;2.27;1.80;;;;;;;;;;7388627;19;20357;-49
2021/12/06 15:01:26;;;;;;;2.40;2.00;;;;;;;;;;7394358;19;20361;-49
2021/12/06 15:04:16;;;;;;;2.20;2.00;;;;;;;;;;7377089;19;20360;-49
2021/12/06 15:06:43;;;;;;;2.60;1.70;;;;;;;;;;7387504;19;20364;-49
2021/12/06 15:09:13;;;;;;;2.07;1.80;;;;;;;;;;7400955;19;20365;-49
2021/12/06 15:11:43;;;;;;;2.63;2.23;;;;;;;;;;7391760;19;20494;-45
2021/12/06 15:14:14;;;;;;;2.57;1.63;;;;;;;;;;7391242;19;20356;-45
2021/12/06 15:16:44;;;;;;;8.87;2.73;;;;;;;;;;7391824;19;20376;-45